sensor_id;sensor_type;location;lat;lon;timestamp;P1;durP1;ratioP1;P2;durP2;ratioP2
66145;SDS011;52948;60.040;30.320;2022-08-19T00:04:37;11.55;;;7.68;;
66145;SDS011;52948;60.040;30.320;2022-08-19T00:09:40;14.25;;;8.30;;
66145;SDS011;52948;60.040;30.320;2022-08-19T00:14:42;11.93;;;8.10;;
66145;SDS011;52948;60.040;30.320;2022-08-19T00:19:45;11.23;;;7.65;;
66145;SDS011;52948;60.040;30.320;2022-08-19T00:24:47;11.50;;;8.45;;
66145;SDS011;52948;60.040;30.320;2022-08-19T00:29:49;13.60;;;8.45;;
66145;SDS011;52948;60.040;30.320;2022-08-19T00:34:52;13.13;;;8.45;;
66145;SDS011;52948;60.040;30.320;2022-08-19T00:39:55;15.55;;;8.10;;
66145;SDS011;52948;60.040;30.320;2022-08-19T00:44:59;12.20;;;7.97;;
66145;SDS011;52948;60.040;30.320;2022-08-19T00:50:02;10.95;;;7.80;;
66145;SDS011;52948;60.040;30.320;2022-08-19T00:55:06;22.02;;;9.20;;
66145;SDS011;52948;60.040;30.320;2022-08-19T01:00:13;14.23;;;8.80;;
66145;SDS011;52948;60.040;30.320;2022-08-19T01:05:19;15.30;;;9.13;;
66145;SDS011;52948;60.040;30.320;2022-08-19T01:10:25;10.35;;;7.13;;
66145;SDS011;52948;60.040;30.320;2022-08-19T01:15:32;12.53;;;7.70;;
66145;SDS011;52948;60.040;30.320;2022-08-19T01:20:36;12.63;;;7.35;;
66145;SDS011;52948;60.040;30.320;2022-08-19T01:25:47;11.75;;;7.78;;
66145;SDS011;52948;60.040;30.320;2022-08-19T01:30:52;11.43;;;7.93;;
66145;SDS011;52948;60.040;30.320;2022-08-19T01:36:02;13.65;;;8.10;;
66145;SDS011;52948;60.040;30.320;2022-08-19T01:41:10;15.43;;;8.38;;
66145;SDS011;52948;60.040;30.320;2022-08-19T01:46:13;11.95;;;8.35;;
66145;SDS011;52948;60.040;30.320;2022-08-19T01:51:15;16.05;;;8.57;;
66145;SDS011;52948;60.040;30.320;2022-08-19T01:56:18;12.55;;;8.13;;
66145;SDS011;52948;60.040;30.320;2022-08-19T02:01:21;10.63;;;8.23;;
66145;SDS011;52948;60.040;30.320;2022-08-19T02:06:23;11.07;;;7.57;;
66145;SDS011;52948;60.040;30.320;2022-08-19T02:11:28;13.40;;;8.13;;
66145;SDS011;52948;60.040;30.320;2022-08-19T02:16:35;13.60;;;8.68;;
66145;SDS011;52948;60.040;30.320;2022-08-19T02:21:43;11.75;;;6.97;;
66145;SDS011;52948;60.040;30.320;2022-08-19T02:26:45;13.52;;;8.20;;
66145;SDS011;52948;60.040;30.320;2022-08-19T02:31:48;14.63;;;8.70;;
66145;SDS011;52948;60.040;30.320;2022-08-19T02:36:50;12.05;;;7.95;;
66145;SDS011;52948;60.040;30.320;2022-08-19T02:41:53;11.48;;;8.20;;
66145;SDS011;52948;60.040;30.320;2022-08-19T02:46:55;12.38;;;7.88;;
66145;SDS011;52948;60.040;30.320;2022-08-19T02:51:57;11.52;;;8.02;;
66145;SDS011;52948;60.040;30.320;2022-08-19T02:56:59;12.45;;;8.13;;
66145;SDS011;52948;60.040;30.320;2022-08-19T03:02:02;14.25;;;8.10;;
66145;SDS011;52948;60.040;30.320;2022-08-19T03:07:04;15.20;;;8.07;;
66145;SDS011;52948;60.040;30.320;2022-08-19T03:12:06;13.68;;;7.75;;
66145;SDS011;52948;60.040;30.320;2022-08-19T03:17:09;11.70;;;7.47;;
66145;SDS011;52948;60.040;30.320;2022-08-19T03:22:11;11.00;;;6.97;;
66145;SDS011;52948;60.040;30.320;2022-08-19T03:27:13;10.30;;;7.70;;
66145;SDS011;52948;60.040;30.320;2022-08-19T03:32:15;15.05;;;8.52;;
66145;SDS011;52948;60.040;30.320;2022-08-19T03:37:18;13.07;;;7.78;;
66145;SDS011;52948;60.040;30.320;2022-08-19T03:42:20;13.95;;;8.23;;
66145;SDS011;52948;60.040;30.320;2022-08-19T03:47:22;10.75;;;7.40;;
66145;SDS011;52948;60.040;30.320;2022-08-19T03:52:25;11.43;;;7.72;;
66145;SDS011;52948;60.040;30.320;2022-08-19T03:57:27;15.65;;;9.00;;
66145;SDS011;52948;60.040;30.320;2022-08-19T04:02:29;10.15;;;7.78;;
66145;SDS011;52948;60.040;30.320;2022-08-19T04:07:34;10.32;;;7.45;;
66145;SDS011;52948;60.040;30.320;2022-08-19T04:12:42;10.32;;;8.00;;
66145;SDS011;52948;60.040;30.320;2022-08-19T04:17:45;12.32;;;8.40;;
66145;SDS011;52948;60.040;30.320;2022-08-19T04:22:47;11.43;;;7.72;;
66145;SDS011;52948;60.040;30.320;2022-08-19T04:27:50;13.10;;;8.45;;
66145;SDS011;52948;60.040;30.320;2022-08-19T04:32:52;14.23;;;8.50;;
66145;SDS011;52948;60.040;30.320;2022-08-19T04:37:54;13.43;;;9.23;;
66145;SDS011;52948;60.040;30.320;2022-08-19T04:42:56;15.93;;;8.52;;
66145;SDS011;52948;60.040;30.320;2022-08-19T04:47:58;19.25;;;8.77;;
66145;SDS011;52948;60.040;30.320;2022-08-19T04:53:03;17.00;;;9.02;;
66145;SDS011;52948;60.040;30.320;2022-08-19T04:58:06;15.77;;;8.55;;
66145;SDS011;52948;60.040;30.320;2022-08-19T05:03:09;13.20;;;8.55;;
66145;SDS011;52948;60.040;30.320;2022-08-19T05:08:12;10.48;;;7.82;;
66145;SDS011;52948;60.040;30.320;2022-08-19T05:13:16;12.15;;;8.50;;
66145;SDS011;52948;60.040;30.320;2022-08-19T05:18:19;11.52;;;8.63;;
66145;SDS011;52948;60.040;30.320;2022-08-19T05:23:40;13.25;;;8.57;;
66145;SDS011;52948;60.040;30.320;2022-08-19T05:28:42;11.30;;;8.02;;
66145;SDS011;52948;60.040;30.320;2022-08-19T05:33:45;13.13;;;8.77;;
66145;SDS011;52948;60.040;30.320;2022-08-19T05:38:47;12.90;;;8.30;;
66145;SDS011;52948;60.040;30.320;2022-08-19T05:43:49;13.57;;;8.77;;
66145;SDS011;52948;60.040;30.320;2022-08-19T05:48:52;12.85;;;8.20;;
66145;SDS011;52948;60.040;30.320;2022-08-19T05:53:55;13.55;;;9.13;;
66145;SDS011;52948;60.040;30.320;2022-08-19T05:58:57;11.15;;;8.45;;
66145;SDS011;52948;60.040;30.320;2022-08-19T06:04:00;12.57;;;8.13;;
66145;SDS011;52948;60.040;30.320;2022-08-19T06:09:04;12.73;;;8.43;;
66145;SDS011;52948;60.040;30.320;2022-08-19T06:14:09;12.32;;;7.68;;
66145;SDS011;52948;60.040;30.320;2022-08-19T06:19:14;11.98;;;7.90;;
66145;SDS011;52948;60.040;30.320;2022-08-19T06:24:20;15.05;;;7.38;;
66145;SDS011;52948;60.040;30.320;2022-08-19T06:29:25;13.60;;;8.20;;
66145;SDS011;52948;60.040;30.320;2022-08-19T06:34:30;10.95;;;8.50;;
66145;SDS011;52948;60.040;30.320;2022-08-19T06:39:34;12.98;;;8.57;;
66145;SDS011;52948;60.040;30.320;2022-08-19T06:44:40;10.30;;;7.35;;
66145;SDS011;52948;60.040;30.320;2022-08-19T06:49:43;11.75;;;8.05;;
66145;SDS011;52948;60.040;30.320;2022-08-19T06:54:45;14.13;;;8.27;;
66145;SDS011;52948;60.040;30.320;2022-08-19T06:59:52;10.60;;;7.25;;
66145;SDS011;52948;60.040;30.320;2022-08-19T07:04:55;11.32;;;7.78;;
66145;SDS011;52948;60.040;30.320;2022-08-19T07:09:59;13.40;;;7.82;;
66145;SDS011;52948;60.040;30.320;2022-08-19T07:15:05;10.88;;;7.88;;
66145;SDS011;52948;60.040;30.320;2022-08-19T07:20:10;12.23;;;7.72;;
66145;SDS011;52948;60.040;30.320;2022-08-19T07:25:12;12.90;;;7.70;;
66145;SDS011;52948;60.040;30.320;2022-08-19T07:30:15;11.55;;;7.40;;
66145;SDS011;52948;60.040;30.320;2022-08-19T07:35:18;12.65;;;7.75;;
66145;SDS011;52948;60.040;30.320;2022-08-19T07:40:22;9.45;;;6.95;;
66145;SDS011;52948;60.040;30.320;2022-08-19T07:45:25;10.63;;;7.90;;
66145;SDS011;52948;60.040;30.320;2022-08-19T07:50:27;13.15;;;8.30;;
66145;SDS011;52948;60.040;30.320;2022-08-19T07:55:29;11.20;;;8.30;;
66145;SDS011;52948;60.040;30.320;2022-08-19T08:00:35;13.70;;;8.65;;
66145;SDS011;52948;60.040;30.320;2022-08-19T08:05:38;9.50;;;7.38;;
66145;SDS011;52948;60.040;30.320;2022-08-19T08:10:59;10.18;;;7.72;;
66145;SDS011;52948;60.040;30.320;2022-08-19T08:16:02;8.70;;;7.35;;
66145;SDS011;52948;60.040;30.320;2022-08-19T08:21:04;9.45;;;7.05;;
66145;SDS011;52948;60.040;30.320;2022-08-19T08:26:06;11.48;;;7.20;;
66145;SDS011;52948;60.040;30.320;2022-08-19T08:31:09;12.02;;;6.70;;
66145;SDS011;52948;60.040;30.320;2022-08-19T08:36:11;15.15;;;7.25;;
66145;SDS011;52948;60.040;30.320;2022-08-19T08:46:37;14.40;;;6.65;;
66145;SDS011;52948;60.040;30.320;2022-08-19T08:51:47;9.93;;;6.82;;
66145;SDS011;52948;60.040;30.320;2022-08-19T08:56:53;8.85;;;6.15;;
66145;SDS011;52948;60.040;30.320;2022-08-19T09:01:55;8.82;;;6.68;;
66145;SDS011;52948;60.040;30.320;2022-08-19T09:12:38;11.40;;;5.93;;
66145;SDS011;52948;60.040;30.320;2022-08-19T09:17:49;9.75;;;5.82;;
66145;SDS011;52948;60.040;30.320;2022-08-19T09:22:52;8.82;;;6.07;;
66145;SDS011;52948;60.040;30.320;2022-08-19T09:27:54;8.82;;;5.88;;
66145;SDS011;52948;60.040;30.320;2022-08-19T09:32:58;10.40;;;6.00;;
66145;SDS011;52948;60.040;30.320;2022-08-19T09:38:00;8.15;;;5.40;;
66145;SDS011;52948;60.040;30.320;2022-08-19T09:43:03;10.13;;;6.25;;
66145;SDS011;52948;60.040;30.320;2022-08-19T09:48:06;7.53;;;5.93;;
66145;SDS011;52948;60.040;30.320;2022-08-19T09:53:08;11.23;;;6.80;;
66145;SDS011;52948;60.040;30.320;2022-08-19T09:58:10;12.65;;;6.30;;
66145;SDS011;52948;60.040;30.320;2022-08-19T10:03:13;12.27;;;6.18;;
66145;SDS011;52948;60.040;30.320;2022-08-19T10:08:16;13.52;;;6.32;;
66145;SDS011;52948;60.040;30.320;2022-08-19T10:13:21;9.68;;;5.85;;
66145;SDS011;52948;60.040;30.320;2022-08-19T10:18:25;12.02;;;5.60;;
66145;SDS011;52948;60.040;30.320;2022-08-19T10:23:27;10.32;;;5.40;;
66145;SDS011;52948;60.040;30.320;2022-08-19T10:28:46;8.38;;;5.45;;
66145;SDS011;52948;60.040;30.320;2022-08-19T10:33:49;9.00;;;5.25;;
66145;SDS011;52948;60.040;30.320;2022-08-19T10:38:53;9.00;;;5.32;;
66145;SDS011;52948;60.040;30.320;2022-08-19T10:43:59;6.95;;;5.15;;
66145;SDS011;52948;60.040;30.320;2022-08-19T10:49:04;6.25;;;4.32;;
66145;SDS011;52948;60.040;30.320;2022-08-19T10:54:07;5.80;;;4.18;;
66145;SDS011;52948;60.040;30.320;2022-08-19T10:59:09;7.82;;;4.97;;
66145;SDS011;52948;60.040;30.320;2022-08-19T11:04:11;7.72;;;5.30;;
66145;SDS011;52948;60.040;30.320;2022-08-19T11:09:16;6.95;;;4.85;;
66145;SDS011;52948;60.040;30.320;2022-08-19T11:14:22;6.22;;;4.82;;
66145;SDS011;52948;60.040;30.320;2022-08-19T11:19:25;5.65;;;4.57;;
66145;SDS011;52948;60.040;30.320;2022-08-19T11:24:28;9.43;;;5.03;;
66145;SDS011;52948;60.040;30.320;2022-08-19T11:29:30;8.98;;;4.97;;
66145;SDS011;52948;60.040;30.320;2022-08-19T11:34:33;8.93;;;5.25;;
66145;SDS011;52948;60.040;30.320;2022-08-19T11:39:37;8.93;;;5.03;;
66145;SDS011;52948;60.040;30.320;2022-08-19T11:44:39;11.63;;;5.00;;
66145;SDS011;52948;60.040;30.320;2022-08-19T11:49:41;8.82;;;5.50;;
66145;SDS011;52948;60.040;30.320;2022-08-19T11:54:43;7.03;;;4.65;;
66145;SDS011;52948;60.040;30.320;2022-08-19T11:59:51;6.47;;;4.97;;
66145;SDS011;52948;60.040;30.320;2022-08-19T12:04:54;7.10;;;4.70;;
66145;SDS011;52948;60.040;30.320;2022-08-19T12:09:56;6.65;;;5.03;;
66145;SDS011;52948;60.040;30.320;2022-08-19T12:14:58;8.15;;;5.55;;
66145;SDS011;52948;60.040;30.320;2022-08-19T12:20:01;8.07;;;5.00;;
66145;SDS011;52948;60.040;30.320;2022-08-19T12:25:04;7.57;;;4.65;;
66145;SDS011;52948;60.040;30.320;2022-08-19T12:30:08;7.55;;;4.85;;
66145;SDS011;52948;60.040;30.320;2022-08-19T12:35:11;8.95;;;4.60;;
66145;SDS011;52948;60.040;30.320;2022-08-19T12:40:15;5.15;;;3.90;;
66145;SDS011;52948;60.040;30.320;2022-08-19T12:45:19;7.97;;;4.88;;
66145;SDS011;52948;60.040;30.320;2022-08-19T12:50:21;6.68;;;4.97;;
66145;SDS011;52948;60.040;30.320;2022-08-19T12:55:23;9.20;;;5.25;;
66145;SDS011;52948;60.040;30.320;2022-08-19T13:00:26;6.57;;;4.55;;
66145;SDS011;52948;60.040;30.320;2022-08-19T13:05:30;9.38;;;5.53;;
66145;SDS011;52948;60.040;30.320;2022-08-19T13:10:35;8.97;;;5.37;;
66145;SDS011;52948;60.040;30.320;2022-08-19T13:15:38;10.52;;;5.05;;
66145;SDS011;52948;60.040;30.320;2022-08-19T13:20:42;6.10;;;4.15;;
66145;SDS011;52948;60.040;30.320;2022-08-19T13:25:44;8.52;;;4.85;;
66145;SDS011;52948;60.040;30.320;2022-08-19T13:30:46;6.40;;;4.95;;
66145;SDS011;52948;60.040;30.320;2022-08-19T13:36:07;5.90;;;4.38;;
66145;SDS011;52948;60.040;30.320;2022-08-19T13:41:09;8.77;;;5.05;;
66145;SDS011;52948;60.040;30.320;2022-08-19T13:46:11;7.45;;;4.70;;
66145;SDS011;52948;60.040;30.320;2022-08-19T13:51:16;7.40;;;4.97;;
66145;SDS011;52948;60.040;30.320;2022-08-19T13:56:19;5.95;;;4.38;;
66145;SDS011;52948;60.040;30.320;2022-08-19T14:01:21;8.15;;;5.53;;
66145;SDS011;52948;60.040;30.320;2022-08-19T14:06:24;11.25;;;4.82;;
66145;SDS011;52948;60.040;30.320;2022-08-19T14:11:27;6.95;;;4.45;;
66145;SDS011;52948;60.040;30.320;2022-08-19T14:16:29;5.85;;;4.63;;
66145;SDS011;52948;60.040;30.320;2022-08-19T14:21:32;6.75;;;4.72;;
66145;SDS011;52948;60.040;30.320;2022-08-19T14:26:35;5.30;;;4.47;;
66145;SDS011;52948;60.040;30.320;2022-08-19T14:31:37;7.15;;;5.15;;
66145;SDS011;52948;60.040;30.320;2022-08-19T14:36:42;8.45;;;5.25;;
66145;SDS011;52948;60.040;30.320;2022-08-19T14:41:44;9.65;;;6.18;;
66145;SDS011;52948;60.040;30.320;2022-08-19T14:46:49;7.25;;;4.90;;
66145;SDS011;52948;60.040;30.320;2022-08-19T14:51:52;7.85;;;4.80;;
66145;SDS011;52948;60.040;30.320;2022-08-19T14:56:54;7.28;;;5.22;;
66145;SDS011;52948;60.040;30.320;2022-08-19T15:01:56;9.75;;;5.32;;
66145;SDS011;52948;60.040;30.320;2022-08-19T15:06:58;9.90;;;5.70;;
66145;SDS011;52948;60.040;30.320;2022-08-19T15:12:01;6.30;;;4.82;;
66145;SDS011;52948;60.040;30.320;2022-08-19T15:17:04;10.38;;;5.20;;
66145;SDS011;52948;60.040;30.320;2022-08-19T15:22:06;8.57;;;5.60;;
66145;SDS011;52948;60.040;30.320;2022-08-19T15:27:08;11.23;;;6.25;;
66145;SDS011;52948;60.040;30.320;2022-08-19T15:32:11;7.20;;;5.43;;
66145;SDS011;52948;60.040;30.320;2022-08-19T15:37:13;5.38;;;4.85;;
66145;SDS011;52948;60.040;30.320;2022-08-19T15:42:15;11.75;;;5.68;;
66145;SDS011;52948;60.040;30.320;2022-08-19T15:47:18;8.65;;;4.95;;
66145;SDS011;52948;60.040;30.320;2022-08-19T15:52:21;7.65;;;4.93;;
66145;SDS011;52948;60.040;30.320;2022-08-19T15:57:23;6.68;;;4.82;;
66145;SDS011;52948;60.040;30.320;2022-08-19T16:02:26;5.30;;;4.43;;
66145;SDS011;52948;60.040;30.320;2022-08-19T16:07:46;6.72;;;4.97;;
66145;SDS011;52948;60.040;30.320;2022-08-19T16:12:49;6.95;;;4.55;;
66145;SDS011;52948;60.040;30.320;2022-08-19T16:17:51;5.65;;;3.92;;
66145;SDS011;52948;60.040;30.320;2022-08-19T16:22:54;8.00;;;3.80;;
66145;SDS011;52948;60.040;30.320;2022-08-19T16:27:59;5.78;;;3.90;;
66145;SDS011;52948;60.040;30.320;2022-08-19T16:33:01;5.13;;;3.88;;
66145;SDS011;52948;60.040;30.320;2022-08-19T16:38:03;18.00;;;4.07;;
66145;SDS011;52948;60.040;30.320;2022-08-19T16:43:07;8.88;;;4.18;;
66145;SDS011;52948;60.040;30.320;2022-08-19T16:48:11;5.03;;;4.22;;
66145;SDS011;52948;60.040;30.320;2022-08-19T16:53:20;10.48;;;4.55;;
66145;SDS011;52948;60.040;30.320;2022-08-19T16:58:24;5.90;;;3.80;;
66145;SDS011;52948;60.040;30.320;2022-08-19T17:03:27;6.50;;;4.30;;
66145;SDS011;52948;60.040;30.320;2022-08-19T17:08:30;7.53;;;4.22;;
66145;SDS011;52948;60.040;30.320;2022-08-19T17:13:33;6.13;;;4.13;;
66145;SDS011;52948;60.040;30.320;2022-08-19T17:18:35;10.05;;;4.47;;
66145;SDS011;52948;60.040;30.320;2022-08-19T17:23:38;7.05;;;4.47;;
66145;SDS011;52948;60.040;30.320;2022-08-19T17:28:40;8.32;;;5.22;;
66145;SDS011;52948;60.040;30.320;2022-08-19T17:33:42;9.02;;;4.43;;
66145;SDS011;52948;60.040;30.320;2022-08-19T17:38:45;5.97;;;4.07;;
66145;SDS011;52948;60.040;30.320;2022-08-19T17:43:47;6.28;;;4.63;;
66145;SDS011;52948;60.040;30.320;2022-08-19T17:48:50;5.78;;;4.32;;
66145;SDS011;52948;60.040;30.320;2022-08-19T17:53:55;7.57;;;4.82;;
66145;SDS011;52948;60.040;30.320;2022-08-19T17:58:57;10.80;;;4.82;;
66145;SDS011;52948;60.040;30.320;2022-08-19T18:03:59;6.75;;;4.97;;
66145;SDS011;52948;60.040;30.320;2022-08-19T18:09:03;9.20;;;5.22;;
66145;SDS011;52948;60.040;30.320;2022-08-19T18:14:06;8.02;;;4.25;;
66145;SDS011;52948;60.040;30.320;2022-08-19T18:19:09;8.52;;;5.80;;
66145;SDS011;52948;60.040;30.320;2022-08-19T18:24:11;7.72;;;5.00;;
66145;SDS011;52948;60.040;30.320;2022-08-19T18:29:13;9.50;;;5.43;;
66145;SDS011;52948;60.040;30.320;2022-08-19T18:34:16;8.35;;;5.05;;
66145;SDS011;52948;60.040;30.320;2022-08-19T18:39:18;11.15;;;6.00;;
66145;SDS011;52948;60.040;30.320;2022-08-19T18:44:39;7.50;;;4.93;;
66145;SDS011;52948;60.040;30.320;2022-08-19T18:50:00;7.43;;;5.07;;
66145;SDS011;52948;60.040;30.320;2022-08-19T18:55:11;9.95;;;5.80;;
66145;SDS011;52948;60.040;30.320;2022-08-19T19:00:16;11.07;;;5.50;;
66145;SDS011;52948;60.040;30.320;2022-08-19T19:05:19;8.30;;;5.80;;
66145;SDS011;52948;60.040;30.320;2022-08-19T19:10:22;7.40;;;6.00;;
66145;SDS011;52948;60.040;30.320;2022-08-19T19:15:25;7.80;;;5.63;;
66145;SDS011;52948;60.040;30.320;2022-08-19T19:20:27;13.18;;;6.18;;
66145;SDS011;52948;60.040;30.320;2022-08-19T19:25:31;9.38;;;6.47;;
66145;SDS011;52948;60.040;30.320;2022-08-19T19:30:35;8.02;;;6.53;;
66145;SDS011;52948;60.040;30.320;2022-08-19T19:35:37;14.48;;;6.93;;
66145;SDS011;52948;60.040;30.320;2022-08-19T19:40:41;10.23;;;6.07;;
66145;SDS011;52948;60.040;30.320;2022-08-19T19:45:44;10.32;;;7.13;;
66145;SDS011;52948;60.040;30.320;2022-08-19T19:50:47;10.40;;;6.80;;
66145;SDS011;52948;60.040;30.320;2022-08-19T19:55:49;11.07;;;6.60;;
66145;SDS011;52948;60.040;30.320;2022-08-19T20:00:52;9.02;;;5.82;;
66145;SDS011;52948;60.040;30.320;2022-08-19T20:05:54;20.35;;;7.97;;
66145;SDS011;52948;60.040;30.320;2022-08-19T20:11:00;15.65;;;7.15;;
66145;SDS011;52948;60.040;30.320;2022-08-19T20:16:03;8.85;;;5.95;;
66145;SDS011;52948;60.040;30.320;2022-08-19T20:21:05;10.43;;;6.03;;
66145;SDS011;52948;60.040;30.320;2022-08-19T20:26:07;9.80;;;5.82;;
66145;SDS011;52948;60.040;30.320;2022-08-19T20:31:10;10.77;;;6.15;;
66145;SDS011;52948;60.040;30.320;2022-08-19T20:36:12;8.38;;;5.25;;
66145;SDS011;52948;60.040;30.320;2022-08-19T20:41:14;8.45;;;5.28;;
66145;SDS011;52948;60.040;30.320;2022-08-19T20:46:18;6.55;;;4.50;;
66145;SDS011;52948;60.040;30.320;2022-08-19T20:51:20;7.18;;;5.22;;
66145;SDS011;52948;60.040;30.320;2022-08-19T20:56:22;7.10;;;4.22;;
66145;SDS011;52948;60.040;30.320;2022-08-19T21:01:24;6.95;;;4.93;;
66145;SDS011;52948;60.040;30.320;2022-08-19T21:06:27;9.57;;;5.15;;
66145;SDS011;52948;60.040;30.320;2022-08-19T21:11:29;6.60;;;4.63;;
66145;SDS011;52948;60.040;30.320;2022-08-19T21:16:32;11.15;;;4.95;;
66145;SDS011;52948;60.040;30.320;2022-08-19T21:21:35;9.60;;;5.28;;
66145;SDS011;52948;60.040;30.320;2022-08-19T21:26:37;8.80;;;4.80;;
66145;SDS011;52948;60.040;30.320;2022-08-19T21:31:39;8.10;;;4.90;;
66145;SDS011;52948;60.040;30.320;2022-08-19T21:36:41;9.63;;;4.63;;
66145;SDS011;52948;60.040;30.320;2022-08-19T21:41:43;7.45;;;4.65;;
66145;SDS011;52948;60.040;30.320;2022-08-19T21:46:45;10.82;;;5.55;;
66145;SDS011;52948;60.040;30.320;2022-08-19T21:51:48;5.57;;;4.90;;
66145;SDS011;52948;60.040;30.320;2022-08-19T21:56:50;9.18;;;4.70;;
66145;SDS011;52948;60.040;30.320;2022-08-19T22:01:52;6.35;;;4.30;;
66145;SDS011;52948;60.040;30.320;2022-08-19T22:06:54;5.15;;;4.32;;
66145;SDS011;52948;60.040;30.320;2022-08-19T22:11:58;6.28;;;4.32;;
66145;SDS011;52948;60.040;30.320;2022-08-19T22:17:00;10.98;;;5.13;;
66145;SDS011;52948;60.040;30.320;2022-08-19T22:22:03;8.88;;;5.43;;
66145;SDS011;52948;60.040;30.320;2022-08-19T22:27:05;6.43;;;4.75;;
66145;SDS011;52948;60.040;30.320;2022-08-19T22:32:08;7.13;;;4.20;;
66145;SDS011;52948;60.040;30.320;2022-08-19T22:37:10;9.88;;;4.72;;
66145;SDS011;52948;60.040;30.320;2022-08-19T22:42:16;8.75;;;4.00;;
66145;SDS011;52948;60.040;30.320;2022-08-19T22:47:19;7.85;;;4.57;;
66145;SDS011;52948;60.040;30.320;2022-08-19T22:52:21;8.55;;;4.00;;
66145;SDS011;52948;60.040;30.320;2022-08-19T22:57:23;7.07;;;4.10;;
66145;SDS011;52948;60.040;30.320;2022-08-19T23:02:28;7.07;;;3.95;;
66145;SDS011;52948;60.040;30.320;2022-08-19T23:07:34;8.07;;;5.05;;
66145;SDS011;52948;60.040;30.320;2022-08-19T23:12:38;9.23;;;4.28;;
66145;SDS011;52948;60.040;30.320;2022-08-19T23:17:43;4.17;;;3.33;;
66145;SDS011;52948;60.040;30.320;2022-08-19T23:22:46;4.97;;;3.03;;
66145;SDS011;52948;60.040;30.320;2022-08-19T23:27:50;9.05;;;3.85;;
66145;SDS011;52948;60.040;30.320;2022-08-19T23:38:26;6.28;;;3.92;;
66145;SDS011;52948;60.040;30.320;2022-08-19T23:43:29;5.45;;;3.67;;
66145;SDS011;52948;60.040;30.320;2022-08-19T23:48:33;4.93;;;3.65;;
66145;SDS011;52948;60.040;30.320;2022-08-19T23:53:36;5.13;;;3.97;;
66145;SDS011;52948;60.040;30.320;2022-08-19T23:58:39;4.75;;;3.67;;
